Portada
METAR-TAF:

METAR-TAF

Aeropuertos :

Foz do Iguaçu, Paraná, Brasil

Aeropuerto Internacional de Foz do Iguaçu

latitud: 25-31S, longitud: 054-35W, altitud: 180 m

Observación

El informe se hizo hace 7 minutos, a las 14:00 UTC
Viento 8 kt del este
Temperatura 20°C
Humedad 78%
Presión 1021 hPa
Visibilidad 10 km o más
sin nubes por debajo de 1500 m y sin presencia de cumulonimbus.

METAR: SBFI 221400Z 08008KT CAVOK 20/16 Q1021

Hora: 11:07 (14:07 UTC)

Pronóstico

El informe se hizo hace 4 horas y 7 minutos, a las 10:00 UTC
Pronóstico válido del 22 a las 12 UTC al 23 a las 12 UTC
Viento 8 kt del norte-noreste
Visibilidad 10 km o más
sin nubes por debajo de 1500 m y sin presencia de cumulonimbus.
Probabilidad 30%
del 23 a las 09 UTC al 23 a las 11 UTC
Visibilidad: 2000 m
niebla en bancos

TAF: SBFI 221000Z 2212/2312 03008KT CAVOK TX26/2218Z TN13/2309Z PROB30 2309/2311 2000 BCFG NSC RMK PEB

Observaciones y pronósticos meteorológicos de más de 4000 aeropuertos (mensajes METAR y TAF).

Los puntos amarillos y rojos representan las estaciones disponibles.

Ponga el ratón en el punto deseado para ver el nombre de la estación.

Haga clic para ver las observaciones y los pronósticos meteorológicos.

Para cambiar el mapa : haga clic en los botones verdes con una cruz de color negro para hacer un zoom, en el botón verde con un guión para alejar o en las flechas verdes para mapas adyacentes.


METAR-TAF: